Terminal Aerodrome Forecast
Issued by NWS Paducah, KY

Home | Current Version | Previous Version | Text Only | Print | Product List | Glossary Off
Versions: 1 2 3 4 5 6 7 8 9 10 11 12 13 14 15 16 17 18 19 20

725
FTUS43 KPAH 020520
TAFEVV
TAF
KEVV 020520Z 0206/0306 29005KT P6SM SCT045
     FM021300 31004KT P6SM BKN010
     FM021600 27006KT P6SM BKN020
     FM021900 32007KT P6SM BKN035=

USA.gov is the U.S. government's official web portal to all federal, state and local government web resources and services.